ADDS METAR Data

Data at: 0506 UTC 20 Apr 2018

METAR for:KIZG (Fryeburg/Eastern Slo, ME, US)
Text:KIZG 200454Z AUTO 22003KT 10SM BKN095 OVC120 M01/M01 A2977 RMK AO2 SLP086 T10061006 400941006
Temperature: -0.6°C ( 31°F)
Dewpoint: -0.6°C ( 31°F) [RH = 100%]
Pressure (altimeter):29.77 inches Hg (1008.2 mb) [Sea level pressure: 1008.6 mb]
Winds:from the SW (220 degrees) at 3 MPH (3 knots; 1.5 m/s)
Visibility:10 or more sm (16+ km)
Ceiling:9500 feet AGL
Clouds: broken clouds at 9500 feet AGL, overcast cloud deck at 12000 feet AGL
QC Flag:automated observation with no human augmentation